This is the latest recevied weather packets stored in our database for station/object DL1AIE-13. If no packets are shown the sender has not sent any weather packets the latest 10 day(s).
| Time | Temp. | Humidity | Pressure | Rain* | Wind** | Luminosity | Snow |
|---|---|---|---|---|---|---|---|
| 1777874245 | 13.33° C | 74% | 1014.6 hPa | 0 mm | - | - | - |
| 1777873639 | 12.78° C | 77% | 1014.7 hPa | 0 mm | - | - | - |
| 1777873055 | 12.22° C | 78% | 1014.7 hPa | 0 mm | - | - | - |
| 1777872451 | 11.11° C | 83% | 1014.7 hPa | 0 mm | - | - | - |
| 1777871848 | 10.56° C | 88% | 1014.6 hPa | 0 mm | - | - | - |
| 1777871244 | 10° C | 87% | 1014.4 hPa | 0 mm | - | - | - |
| 1777870642 | 9.44° C | 89% | 1014.6 hPa | 0 mm | - | - | - |
| 1777870037 | 10° C | 90% | 1014.5 hPa | 0 mm | - | - | - |
| 1777869453 | 9.44° C | 91% | 1014.5 hPa | 0 mm | - | - | - |
| 1777868850 | 9.44° C | 91% | 1014.3 hPa | 0 mm | - | - | - |
| 1777868246 | 9.44° C | 92% | 1014.3 hPa | 0 mm | - | - | - |
| 1777867642 | 8.89° C | 93% | 1014.4 hPa | 0 mm | - | - | - |
| 1777867038 | 8.89° C | 93% | 1014.4 hPa | 0 mm | - | - | - |
| 1777866455 | 8.89° C | 91% | 1014.3 hPa | 0 mm | - | - | - |
| 1777865852 | 9.44° C | 90% | 1014.4 hPa | 0 mm | - | - | - |
| 1777865247 | 10° C | 88% | 1014.3 hPa | 0 mm | - | - | - |
| 1777864644 | 10.56° C | 84% | 1014.5 hPa | 0 mm | - | - | - |
| 1777864041 | 10.56° C | 85% | 1014.3 hPa | 0 mm | - | - | - |
| 1777863437 | 10.56° C | 87% | 1014.4 hPa | 0 mm | - | - | - |
| 1777862856 | 10.56° C | 85% | 1014.4 hPa | 0 mm | - | - | - |
| 1777862250 | 11.11° C | 82% | 1014.3 hPa | 0 mm | - | - | - |
| 1777861649 | 11.67° C | 81% | 1014.3 hPa | 0 mm | - | - | - |
| 1777861042 | 12.22° C | 78% | 1014.4 hPa | 0 mm | - | - | - |
| 1777860438 | 11.67° C | 79% | 1014.4 hPa | 0 mm | - | - | - |
| 1777859855 | 12.22° C | 77% | 1014.3 hPa | 0 mm | - | - | - |
* Rain latest hour (hover to see other rain measurements)
** Current wind speed in m/s (hover to see current wind gust speed)